createdAt,value
2019-01-10T00:01:21.890Z,3.17
2019-01-10T00:03:51.620Z,3.03
2019-01-10T00:06:21.233Z,3.14
2019-01-10T00:08:50.988Z,3.03
2019-01-10T00:11:20.833Z,3.16
2019-01-10T00:13:50.609Z,3.24
2019-01-10T00:16:20.279Z,2.98
2019-01-10T00:18:49.885Z,3.00
2019-01-10T00:21:19.467Z,3.00
2019-01-10T00:23:49.066Z,3.01
2019-01-10T00:26:18.749Z,3.23
2019-01-10T00:28:48.370Z,3.20
2019-01-10T00:31:17.957Z,3.39
2019-01-10T00:33:47.575Z,3.37
2019-01-10T00:36:17.282Z,3.12
2019-01-10T00:38:46.945Z,3.00
2019-01-10T00:41:16.626Z,3.05
2019-01-10T00:43:46.210Z,3.03
2019-01-10T00:46:15.807Z,3.06
2019-01-10T00:48:45.427Z,3.09
2019-01-10T00:51:15.007Z,3.03
2019-01-10T00:53:44.602Z,3.25
2019-01-10T00:56:14.161Z,3.10
2019-01-10T00:58:43.778Z,3.19
2019-01-10T01:01:13.467Z,3.17
2019-01-10T01:03:43.037Z,2.91
2019-01-10T01:06:12.619Z,3.08
2019-01-10T01:08:42.177Z,2.98
2019-01-10T01:11:11.769Z,2.97
2019-01-10T01:13:41.427Z,3.07
2019-01-10T01:16:11.305Z,3.23
2019-01-10T01:18:40.916Z,3.21
2019-01-10T01:21:10.575Z,3.17
2019-01-10T01:23:40.153Z,2.87
2019-01-10T01:26:09.759Z,3.06
2019-01-10T01:28:39.414Z,3.23
2019-01-10T01:31:09.101Z,2.98
2019-01-10T01:33:38.936Z,3.05
2019-01-10T01:36:08.807Z,3.04
2019-01-10T01:38:38.495Z,3.05
2019-01-10T01:41:08.221Z,2.99
2019-01-10T01:43:37.833Z,2.91
2019-01-10T01:46:07.849Z,3.01
2019-01-10T01:48:37.565Z,3.12
2019-01-10T01:51:07.201Z,3.15
2019-01-10T01:53:36.771Z,3.20
2019-01-10T01:56:06.607Z,3.25
2019-01-10T01:58:36.365Z,3.20
2019-01-10T02:01:06.109Z,2.98
2019-01-10T02:03:35.784Z,3.09
2019-01-10T02:06:05.665Z,3.18
2019-01-10T02:08:35.225Z,3.21
2019-01-10T02:11:05.403Z,3.02
2019-01-10T02:13:35.069Z,3.48
2019-01-10T02:16:04.859Z,3.31
2019-01-10T02:18:34.445Z,3.10
2019-01-10T02:21:04.139Z,3.10
2019-01-10T02:23:33.856Z,3.02
2019-01-10T02:26:03.591Z,3.04
2019-01-10T02:28:33.150Z,2.99
2019-01-10T02:31:02.885Z,3.26
2019-01-10T02:33:32.612Z,3.07
2019-01-10T02:36:02.314Z,2.91
2019-01-10T02:38:31.983Z,2.82
2019-01-10T02:41:02.841Z,2.82
2019-01-10T02:43:32.645Z,2.98
2019-01-10T02:46:02.414Z,3.05
2019-01-10T02:48:32.010Z,3.11
2019-01-10T02:51:01.586Z,3.03
2019-01-10T02:53:31.168Z,3.16
2019-01-10T02:56:00.707Z,3.54
2019-01-10T02:58:30.341Z,3.38
2019-01-10T03:00:59.979Z,3.20
2019-01-10T03:03:29.603Z,3.06
2019-01-10T03:05:59.156Z,2.95
2019-01-10T03:08:28.811Z,3.03
2019-01-10T03:10:58.511Z,3.15
2019-01-10T03:13:36.516Z,3.08
2019-01-10T03:15:59.469Z,3.11
2019-01-10T03:18:29.163Z,3.06
2019-01-10T03:20:58.724Z,3.03
2019-01-10T03:23:28.465Z,3.01
2019-01-10T03:25:58.066Z,3.24
2019-01-10T03:28:27.805Z,3.18
2019-01-10T03:30:57.363Z,3.14
2019-01-10T03:33:26.977Z,3.18
2019-01-10T03:35:56.577Z,3.02
2019-01-10T03:38:26.131Z,3.13
2019-01-10T03:40:55.770Z,3.07
2019-01-10T03:43:25.377Z,3.29
2019-01-10T03:45:55.054Z,3.36
2019-01-10T03:48:24.687Z,3.36
2019-01-10T03:50:54.232Z,3.53
2019-01-10T03:53:23.881Z,3.27
2019-01-10T03:55:53.452Z,3.22
2019-01-10T03:58:23.009Z,3.30
2019-01-10T04:00:52.610Z,3.33
2019-01-10T04:03:22.152Z,3.19
2019-01-10T04:05:52.013Z,3.19
2019-01-10T04:08:22.196Z,3.33
2019-01-10T04:10:51.822Z,3.01
2019-01-10T04:13:21.478Z,3.26
2019-01-10T04:15:51.094Z,3.34
2019-01-10T04:18:20.679Z,2.99
2019-01-10T04:20:50.360Z,3.23
2019-01-10T04:23:19.961Z,3.42
2019-01-10T04:25:49.742Z,3.54
2019-01-10T04:28:19.310Z,3.28
2019-01-10T04:30:48.893Z,3.02
2019-01-10T04:33:18.436Z,3.11
2019-01-10T04:35:48.014Z,3.17
2019-01-10T04:38:17.597Z,3.18
2019-01-10T04:40:47.405Z,3.04
2019-01-10T04:43:16.980Z,3.27
2019-01-10T04:45:46.544Z,3.21
2019-01-10T04:48:16.124Z,3.44
2019-01-10T04:50:45.676Z,3.53
2019-01-10T04:53:15.301Z,3.44
2019-01-10T04:55:44.866Z,3.53
2019-01-10T04:58:14.441Z,3.51
2019-01-10T05:00:44.036Z,3.46
2019-01-10T05:03:13.601Z,3.59
2019-01-10T05:05:43.189Z,3.15
2019-01-10T05:08:12.784Z,3.48
2019-01-10T05:10:42.356Z,3.07
2019-01-10T05:13:11.947Z,3.41
2019-01-10T05:15:41.568Z,3.35
2019-01-10T05:18:11.421Z,3.50
2019-01-10T05:20:40.991Z,3.44
2019-01-10T05:23:10.588Z,3.58
2019-01-10T05:25:40.158Z,3.51
2019-01-10T05:28:09.785Z,3.44
2019-01-10T05:30:39.386Z,3.52
2019-01-10T05:33:09.052Z,3.49
2019-01-10T05:35:38.616Z,3.43
2019-01-10T05:38:08.217Z,3.43
2019-01-10T05:40:37.795Z,3.33
2019-01-10T05:43:07.550Z,3.19
2019-01-10T05:45:37.152Z,3.26
2019-01-10T05:48:06.738Z,3.00
2019-01-10T05:50:36.337Z,3.02
2019-01-10T05:53:05.967Z,3.15
2019-01-10T05:55:38.610Z,3.09
2019-01-10T05:58:08.185Z,3.23
2019-01-10T06:00:37.759Z,3.15
2019-01-10T06:03:07.384Z,3.31
2019-01-10T06:05:36.997Z,3.21
2019-01-10T06:08:06.597Z,3.29
2019-01-10T06:10:36.319Z,3.16
2019-01-10T06:13:05.976Z,3.29
2019-01-10T06:15:35.567Z,3.22
2019-01-10T06:18:05.226Z,3.22
2019-01-10T06:20:34.815Z,3.23
2019-01-10T06:23:04.414Z,3.18
2019-01-10T06:25:34.031Z,3.32
2019-01-10T06:28:03.686Z,3.25
2019-01-10T06:30:33.316Z,3.31
2019-01-10T06:33:02.908Z,3.25
2019-01-10T06:35:32.515Z,3.12
2019-01-10T06:38:02.077Z,3.28
2019-01-10T06:40:32.246Z,3.22
2019-01-10T06:43:01.896Z,3.28
2019-01-10T06:45:31.472Z,3.18
2019-01-10T06:48:01.155Z,3.25
2019-01-10T06:50:30.754Z,3.33
2019-01-10T06:53:00.433Z,3.19
2019-01-10T06:55:30.054Z,3.09
2019-01-10T06:57:59.657Z,3.06
2019-01-10T07:00:29.282Z,3.21
2019-01-10T07:02:58.872Z,3.27
2019-01-10T07:05:28.550Z,3.24
2019-01-10T07:07:58.138Z,3.21
2019-01-10T07:10:29.659Z,3.25
2019-01-10T07:12:59.253Z,3.29
2019-01-10T07:15:28.824Z,3.29
2019-01-10T07:17:58.543Z,3.39
2019-01-10T07:20:28.283Z,3.40
2019-01-10T07:22:58.069Z,3.41
2019-01-10T07:25:27.651Z,3.29
2019-01-10T07:27:57.364Z,3.27
2019-01-10T07:30:35.987Z,3.38
2019-01-10T07:32:59.150Z,3.37
2019-01-10T07:35:28.735Z,3.36
2019-01-10T07:37:58.469Z,3.40
2019-01-10T07:40:28.440Z,3.49
2019-01-10T07:42:58.139Z,3.33
2019-01-10T07:45:28.580Z,3.27
2019-01-10T07:47:58.180Z,2.97
2019-01-10T07:50:35.357Z,3.13
2019-01-10T07:53:07.221Z,3.05
2019-01-10T07:55:37.391Z,2.91
2019-01-10T07:58:07.107Z,3.15
2019-01-10T08:00:36.767Z,3.22
2019-01-10T08:03:08.674Z,3.01
2019-01-10T08:05:37.933Z,2.75
2019-01-10T08:08:08.694Z,3.10
2019-01-10T08:10:38.757Z,3.00
2019-01-10T08:13:08.515Z,2.90
2019-01-10T08:15:38.087Z,3.11
2019-01-10T08:18:07.780Z,3.22
2019-01-10T08:20:37.363Z,3.08
2019-01-10T08:23:07.180Z,3.18
2019-01-10T08:25:36.707Z,3.04
2019-01-10T08:28:06.428Z,3.04
2019-01-10T08:30:36.846Z,3.05
2019-01-10T08:33:06.493Z,2.86
2019-01-10T08:35:36.332Z,3.06
2019-01-10T08:38:06.075Z,3.20
2019-01-10T08:40:35.655Z,3.22
2019-01-10T08:43:05.444Z,3.03
2019-01-10T08:45:35.028Z,3.05
2019-01-10T08:48:05.052Z,2.99
2019-01-10T08:50:34.744Z,3.32
2019-01-10T08:53:04.483Z,3.23
2019-01-10T08:55:34.100Z,3.36
2019-01-10T08:58:03.661Z,3.29
2019-01-10T09:00:33.291Z,3.19
2019-01-10T09:03:02.891Z,3.22
2019-01-10T09:05:32.597Z,3.02
2019-01-10T09:08:02.193Z,3.26
2019-01-10T09:10:33.535Z,3.16
2019-01-10T09:13:03.249Z,3.32
2019-01-10T09:15:34.695Z,3.43
2019-01-10T09:18:05.165Z,3.27
2019-01-10T09:20:34.818Z,3.40
2019-01-10T09:23:04.483Z,3.34
2019-01-10T09:25:34.229Z,3.48
2019-01-10T09:28:04.102Z,3.50
2019-01-10T09:30:33.682Z,3.52
2019-01-10T09:33:03.356Z,3.58
2019-01-10T09:35:32.954Z,3.20
2019-01-10T09:38:02.602Z,3.55
2019-01-10T09:40:32.261Z,3.66
2019-01-10T09:43:01.848Z,3.53
2019-01-10T09:45:31.511Z,3.31
2019-01-10T09:48:01.157Z,3.57
2019-01-10T09:50:30.823Z,3.48
2019-01-10T09:53:00.452Z,3.69
2019-01-10T09:55:30.056Z,3.95
2019-01-10T09:58:05.313Z,3.92
2019-01-10T10:00:35.156Z,3.55
2019-01-10T10:03:05.001Z,3.80
2019-01-10T10:05:34.663Z,3.59
2019-01-10T10:08:04.445Z,3.71
2019-01-10T10:10:34.244Z,3.56
2019-01-10T10:13:04.038Z,3.90
2019-01-10T10:15:33.779Z,3.87
2019-01-10T10:18:03.395Z,3.60
2019-01-10T10:20:33.112Z,3.85
2019-01-10T10:23:13.686Z,3.91
2019-01-10T10:25:43.234Z,4.17
2019-01-10T10:28:12.827Z,3.95
2019-01-10T10:30:42.455Z,3.79
2019-01-10T10:33:12.027Z,3.94
2019-01-10T10:35:41.795Z,4.03
2019-01-10T10:38:11.452Z,4.09
2019-01-10T10:40:41.042Z,3.97
2019-01-10T10:43:10.634Z,3.85
2019-01-10T10:45:40.210Z,3.99
2019-01-10T10:48:09.890Z,4.19
2019-01-10T10:50:39.518Z,4.15
2019-01-10T10:53:09.123Z,4.23
2019-01-10T10:55:38.740Z,3.90
2019-01-10T10:58:08.342Z,3.85
2019-01-10T11:00:38.273Z,4.06
2019-01-10T11:03:08.083Z,3.91
2019-01-10T11:05:47.998Z,4.05
2019-01-10T11:08:17.589Z,3.90
2019-01-10T11:10:47.230Z,4.12
2019-01-10T11:13:16.930Z,4.16
2019-01-10T11:15:46.635Z,4.07
2019-01-10T11:18:16.319Z,4.31
2019-01-10T11:20:45.915Z,4.32
2019-01-10T11:23:15.506Z,4.25
2019-01-10T11:25:45.157Z,4.34
2019-01-10T11:28:15.221Z,4.01
2019-01-10T11:30:49.055Z,4.01
2019-01-10T11:33:31.128Z,3.90
2019-01-10T11:35:59.888Z,4.20
2019-01-10T11:38:29.502Z,4.36
2019-01-10T11:40:59.145Z,4.40
2019-01-10T11:43:28.829Z,4.35
2019-01-10T11:45:58.388Z,4.39
2019-01-10T11:48:28.048Z,4.54
2019-01-10T11:50:57.709Z,4.02
2019-01-10T11:53:35.244Z,4.05
2019-01-10T11:55:58.616Z,4.41
2019-01-10T11:58:28.202Z,4.23
2019-01-10T12:00:57.817Z,4.55
2019-01-10T12:03:27.417Z,4.66
2019-01-10T12:05:57.048Z,4.63
2019-01-10T12:08:26.747Z,4.23
2019-01-10T12:10:56.317Z,4.50
2019-01-10T12:13:25.897Z,4.43
2019-01-10T12:15:55.491Z,4.66
2019-01-10T12:18:25.100Z,4.31
2019-01-10T12:20:54.668Z,4.44
2019-01-10T12:23:24.329Z,4.21
2019-01-10T12:25:54.058Z,4.57
2019-01-10T12:28:23.859Z,4.75
2019-01-10T12:30:53.447Z,4.75
2019-01-10T12:33:23.297Z,4.63
2019-01-10T12:35:53.055Z,4.70
2019-01-10T12:38:22.713Z,4.49
2019-01-10T12:40:52.298Z,4.47
2019-01-10T12:43:21.903Z,4.64
2019-01-10T12:45:51.556Z,4.60
2019-01-10T12:48:21.157Z,4.56
2019-01-10T12:50:50.919Z,4.42
2019-01-10T12:53:20.583Z,4.42
2019-01-10T12:55:50.336Z,4.52
2019-01-10T12:58:19.928Z,4.61
2019-01-10T13:00:49.612Z,4.81
2019-01-10T13:03:19.318Z,4.65
2019-01-10T13:05:48.894Z,4.82
2019-01-10T13:08:18.489Z,4.73
2019-01-10T13:10:48.050Z,4.83
2019-01-10T13:13:17.750Z,4.93
2019-01-10T13:15:47.384Z,4.91
2019-01-10T13:18:16.949Z,4.82
2019-01-10T13:20:46.638Z,4.85
2019-01-10T13:23:16.307Z,4.72
2019-01-10T13:25:45.995Z,4.74
2019-01-10T13:28:15.729Z,4.94
2019-01-10T13:30:45.360Z,4.95
2019-01-10T13:33:14.992Z,5.03
2019-01-10T13:35:45.954Z,4.80
2019-01-10T13:38:15.709Z,4.98
2019-01-10T13:40:45.291Z,4.96
2019-01-10T13:43:15.025Z,5.05
2019-01-10T13:45:46.338Z,4.96
2019-01-10T13:48:16.181Z,5.12
2019-01-10T13:50:45.767Z,4.96
2019-01-10T13:53:15.443Z,5.08
2019-01-10T13:55:45.073Z,4.92
2019-01-10T13:58:14.691Z,4.96
2019-01-10T14:00:44.420Z,4.75
2019-01-10T14:03:14.081Z,4.83
2019-01-10T14:05:43.686Z,5.04
2019-01-10T14:08:13.367Z,4.97
2019-01-10T14:10:42.987Z,5.08
2019-01-10T14:13:12.680Z,5.12
2019-01-10T14:15:42.373Z,5.10
2019-01-10T14:18:12.028Z,5.05
2019-01-10T14:20:41.601Z,4.98
2019-01-10T14:23:11.297Z,4.96
2019-01-10T14:25:40.889Z,5.06
2019-01-10T14:28:10.547Z,5.02
2019-01-10T14:30:41.206Z,5.08
2019-01-10T14:33:12.577Z,5.01
2019-01-10T14:35:42.421Z,5.18
2019-01-10T14:38:12.617Z,5.14
2019-01-10T14:40:42.274Z,4.99
2019-01-10T14:43:12.032Z,5.17
2019-01-10T14:45:42.945Z,4.92
2019-01-10T14:48:12.633Z,5.13
2019-01-10T14:50:42.219Z,5.13
2019-01-10T14:53:11.869Z,5.02
2019-01-10T14:55:41.416Z,4.99
2019-01-10T14:58:11.097Z,5.00
2019-01-10T15:00:40.687Z,5.06
2019-01-10T15:03:10.288Z,5.12
2019-01-10T15:05:40.027Z,5.13
2019-01-10T15:08:09.778Z,4.99
2019-01-10T15:10:39.602Z,5.14
2019-01-10T15:13:09.391Z,4.99
2019-01-10T15:15:39.072Z,4.96
2019-01-10T15:18:08.770Z,5.04
2019-01-10T15:20:38.476Z,5.06
2019-01-10T15:23:08.223Z,5.11
2019-01-10T15:25:37.882Z,5.11
2019-01-10T15:28:07.606Z,5.11
2019-01-10T15:30:37.229Z,5.09
2019-01-10T15:33:07.177Z,5.07
2019-01-10T15:35:38.943Z,5.02
2019-01-10T15:38:13.801Z,4.86
2019-01-10T15:40:39.945Z,4.77
2019-01-10T15:43:09.731Z,4.86
2019-01-10T15:45:39.407Z,4.96
2019-01-10T15:48:09.057Z,5.04
2019-01-10T15:50:38.702Z,4.97
2019-01-10T15:53:08.425Z,4.90
2019-01-10T15:55:38.015Z,4.95
2019-01-10T15:58:07.586Z,4.96
2019-01-10T16:00:37.248Z,4.95
2019-01-10T16:03:06.942Z,4.95
2019-01-10T16:05:36.818Z,4.78
2019-01-10T16:08:06.635Z,4.83
2019-01-10T16:10:36.229Z,4.91
2019-01-10T16:13:05.858Z,4.94
2019-01-10T16:15:35.577Z,4.85
2019-01-10T16:18:05.360Z,4.78
2019-01-10T16:20:35.020Z,4.65
2019-01-10T16:23:04.847Z,4.71
2019-01-10T16:25:34.502Z,4.64
2019-01-10T16:28:04.166Z,4.58
2019-01-10T16:30:33.915Z,4.80
2019-01-10T16:33:03.579Z,4.69
2019-01-10T16:35:33.250Z,4.58
2019-01-10T16:38:02.834Z,4.57
2019-01-10T16:40:32.426Z,4.60
2019-01-10T16:43:01.998Z,4.43
2019-01-10T16:45:32.784Z,4.67
2019-01-10T16:48:02.442Z,4.66
2019-01-10T16:50:32.015Z,4.60
2019-01-10T16:53:01.780Z,4.52
2019-01-10T16:55:31.598Z,4.47
2019-01-10T16:58:01.217Z,4.65
2019-01-10T17:00:34.979Z,4.49
2019-01-10T17:03:04.723Z,4.50
2019-01-10T17:05:34.559Z,4.54
2019-01-10T17:08:05.392Z,4.59
2019-01-10T17:10:35.157Z,4.52
2019-01-10T17:13:05.143Z,4.52
2019-01-10T17:15:35.080Z,4.59
2019-01-10T17:18:04.833Z,4.36
2019-01-10T17:20:34.464Z,4.41
2019-01-10T17:23:04.456Z,4.43
2019-01-10T17:25:34.223Z,4.36
2019-01-10T17:28:03.950Z,4.32
2019-01-10T17:30:33.690Z,4.41
2019-01-10T17:33:04.292Z,4.39
2019-01-10T17:35:34.315Z,4.32
2019-01-10T17:38:04.937Z,4.53
2019-01-10T17:40:34.680Z,4.40
2019-01-10T17:43:05.646Z,4.47
2019-01-10T17:45:36.980Z,4.42
2019-01-10T17:48:08.910Z,4.25
2019-01-10T17:50:38.690Z,4.44
2019-01-10T17:53:08.312Z,4.43
2019-01-10T17:55:37.967Z,4.42
2019-01-10T17:58:07.837Z,4.30
2019-01-10T18:00:37.454Z,4.37
2019-01-10T18:03:07.020Z,4.37
2019-01-10T18:05:36.741Z,4.37
2019-01-10T18:08:06.556Z,4.33
2019-01-10T18:10:36.285Z,4.30
2019-01-10T18:13:05.970Z,4.42
2019-01-10T18:15:35.661Z,4.47
2019-01-10T18:18:05.389Z,4.43
2019-01-10T18:20:40.090Z,4.23
2019-01-10T18:23:10.061Z,3.95
2019-01-10T18:25:39.741Z,4.18
2019-01-10T18:28:09.477Z,4.24
2019-01-10T18:30:43.368Z,4.34
2019-01-10T18:33:10.475Z,4.24
2019-01-10T18:35:40.122Z,4.31
2019-01-10T18:38:09.708Z,4.37
2019-01-10T18:40:39.517Z,4.40
2019-01-10T18:43:09.385Z,4.21
2019-01-10T18:45:39.121Z,4.35
2019-01-10T18:48:08.744Z,4.26
2019-01-10T18:50:38.449Z,4.34
2019-01-10T18:53:08.174Z,4.30
2019-01-10T18:55:37.845Z,4.38
2019-01-10T18:58:07.486Z,4.41
2019-01-10T19:00:37.138Z,4.32
2019-01-10T19:03:06.996Z,4.35
2019-01-10T19:05:36.635Z,4.31
2019-01-10T19:08:06.381Z,4.38
2019-01-10T19:10:36.356Z,4.28
2019-01-10T19:13:06.113Z,4.26
2019-01-10T19:15:35.829Z,4.11
2019-01-10T19:18:05.624Z,4.09
2019-01-10T19:20:35.236Z,4.28
2019-01-10T19:23:05.006Z,4.19
2019-01-10T19:25:34.591Z,4.26
2019-01-10T19:28:04.445Z,4.27
2019-01-10T19:30:38.756Z,4.08
2019-01-10T19:33:08.643Z,4.31
2019-01-10T19:35:38.344Z,4.10
2019-01-10T19:38:08.155Z,4.23
2019-01-10T19:40:37.794Z,4.23
2019-01-10T19:43:07.477Z,4.31
2019-01-10T19:45:37.165Z,4.17
2019-01-10T19:48:09.739Z,4.26
2019-01-10T19:50:38.324Z,4.15
2019-01-10T19:53:08.047Z,4.24
2019-01-10T19:55:37.836Z,4.26
2019-01-10T19:58:07.920Z,4.22
2019-01-10T20:00:42.446Z,4.37
2019-01-10T20:03:12.257Z,4.28
2019-01-10T20:05:41.921Z,4.21
2019-01-10T20:08:11.599Z,4.17
2019-01-10T20:10:41.347Z,4.14
2019-01-10T20:13:10.995Z,4.12
2019-01-10T20:15:40.602Z,4.15
2019-01-10T20:18:15.894Z,4.14
2019-01-10T20:20:42.951Z,4.18
2019-01-10T20:23:37.908Z,4.08
2019-01-10T20:26:07.664Z,4.17
2019-01-10T20:28:37.475Z,4.21
2019-01-10T20:31:07.286Z,4.12
2019-01-10T20:33:37.055Z,4.10
2019-01-10T20:36:06.787Z,4.05
2019-01-10T20:38:36.500Z,4.03
2019-01-10T20:41:06.122Z,4.03
2019-01-10T20:43:36.224Z,4.16
2019-01-10T20:46:05.916Z,4.02
2019-01-10T20:48:35.605Z,4.06
2019-01-10T20:51:05.318Z,3.93
2019-01-10T20:53:34.913Z,3.95
2019-01-10T20:56:04.599Z,3.94
2019-01-10T20:58:34.247Z,3.91
2019-01-10T21:01:03.988Z,3.92
2019-01-10T21:03:33.613Z,3.75
2019-01-10T21:06:03.431Z,3.79
2019-01-10T21:08:33.156Z,3.68
2019-01-10T21:11:02.830Z,3.78
2019-01-10T21:13:32.513Z,3.79
2019-01-10T21:16:02.116Z,3.62
2019-01-10T21:18:31.745Z,3.69
2019-01-10T21:21:01.395Z,3.74
2019-01-10T21:23:31.047Z,3.75
2019-01-10T21:26:00.640Z,3.72
2019-01-10T21:28:30.356Z,3.82
2019-01-10T21:31:00.436Z,3.72
2019-01-10T21:33:30.118Z,3.68
2019-01-10T21:35:59.776Z,3.79
2019-01-10T21:38:29.563Z,3.73
2019-01-10T21:40:59.307Z,3.85
2019-01-10T21:43:28.908Z,3.63
2019-01-10T21:45:58.694Z,3.84
2019-01-10T21:48:28.321Z,3.96
2019-01-10T21:50:57.930Z,3.84
2019-01-10T21:53:27.526Z,3.63
2019-01-10T21:55:57.235Z,3.85
2019-01-10T21:58:26.842Z,3.84
2019-01-10T22:00:56.444Z,3.82
2019-01-10T22:03:26.024Z,3.91
2019-01-10T22:05:55.631Z,3.58
2019-01-10T22:08:25.350Z,3.70
2019-01-10T22:10:55.030Z,3.55
2019-01-10T22:13:24.632Z,3.52
2019-01-10T22:15:54.204Z,3.57
2019-01-10T22:18:23.814Z,3.78
2019-01-10T22:20:53.469Z,3.64
2019-01-10T22:23:23.138Z,3.48
2019-01-10T22:25:52.766Z,3.69
2019-01-10T22:28:22.394Z,3.45
2019-01-10T22:30:51.990Z,3.40
2019-01-10T22:33:21.580Z,3.47
2019-01-10T22:35:51.189Z,3.57
2019-01-10T22:38:20.852Z,3.74
2019-01-10T22:40:50.436Z,3.48
2019-01-10T22:43:20.032Z,3.51
2019-01-10T22:45:49.712Z,3.56
2019-01-10T22:48:19.385Z,3.47
2019-01-10T22:50:49.048Z,3.46
2019-01-10T22:53:18.644Z,3.47
2019-01-10T22:55:48.225Z,3.31
2019-01-10T22:58:17.846Z,3.36
2019-01-10T23:01:29.224Z,3.32
2019-01-10T23:03:59.396Z,3.52
2019-01-10T23:06:29.056Z,3.62
2019-01-10T23:08:58.795Z,3.54
2019-01-10T23:11:28.532Z,3.61
2019-01-10T23:14:02.481Z,3.55
2019-01-10T23:16:34.668Z,3.40
2019-01-10T23:19:05.111Z,3.58
2019-01-10T23:21:39.462Z,3.49
2019-01-10T23:24:19.630Z,3.49
2019-01-10T23:26:57.667Z,3.44
2019-01-10T23:29:41.024Z,3.48
2019-01-10T23:32:15.079Z,3.50
2019-01-10T23:34:49.258Z,3.34
2019-01-10T23:37:26.247Z,3.58
2019-01-10T23:39:56.591Z,3.56
2019-01-10T23:42:26.407Z,3.45
2019-01-10T23:44:56.074Z,3.45
2019-01-10T23:47:25.730Z,3.53
2019-01-10T23:49:55.330Z,3.39
2019-01-10T23:52:24.906Z,3.62
2019-01-10T23:54:54.637Z,3.39
2019-01-10T23:57:24.184Z,3.50
2019-01-10T23:59:53.767Z,3.62
